Time;durP1;ratioP1;P1;durP2;ratioP2;P2;SDS_P1;SDS_P2;PMS_P1;PMS_P2;Temp;Humidity;BMP_temperature;BMP_pressure;BME280_temperature;BME280_humidity;BME280_pressure;Samples;Min_cycle;Max_cycle;Signal;HPM_P1;HPM_P2
2023/05/22 00:00:37;;;;;;;18.23;14.52;;;18.00;99.90;;;;;;5049437;28;20047;-56
2023/05/22 00:03:04;;;;;;;17.92;16.02;;;17.90;99.90;;;;;;5047543;28;20036;-56
2023/05/22 00:05:29;;;;;;;20.63;16.50;;;18.00;99.90;;;;;;5045519;28;20061;-56
2023/05/22 00:07:55;;;;;;;19.05;16.67;;;18.10;99.90;;;;;;5046760;28;20431;-56
2023/05/22 00:10:21;;;;;;;19.40;16.35;;;18.10;99.90;;;;;;5043497;28;20029;-56
2023/05/22 00:12:47;;;;;;;18.92;16.65;;;18.10;99.90;;;;;;5048075;28;20082;-56
2023/05/22 00:15:12;;;;;;;18.48;15.90;;;18.10;99.90;;;;;;5042725;28;20033;-56
2023/05/22 00:17:38;;;;;;;19.75;16.10;;;18.00;99.90;;;;;;5042416;28;20025;-56
2023/05/22 00:20:06;;;;;;;17.27;15.43;;;17.90;99.90;;;;;;5045072;28;20029;-57
2023/05/22 00:22:35;;;;;;;16.77;14.95;;;17.80;99.90;;;;;;5047042;28;20040;-57
2023/05/22 00:25:02;;;;;;;16.90;15.10;;;17.80;99.90;;;;;;5044718;28;20029;-57
2023/05/22 00:27:28;;;;;;;17.33;14.13;;;17.80;99.90;;;;;;5044923;28;20043;-56
2023/05/22 00:29:54;;;;;;;17.55;15.60;;;17.70;99.90;;;;;;5042658;28;20591;-56
2023/05/22 00:32:19;;;;;;;17.13;15.35;;;17.60;99.90;;;;;;5048105;28;20052;-56
2023/05/22 00:34:45;;;;;;;14.85;13.35;;;17.70;99.90;;;;;;5045449;28;20029;-56
2023/05/22 00:37:10;;;;;;;15.35;13.75;;;17.70;99.90;;;;;;5044991;28;20043;-57
2023/05/22 00:39:36;;;;;;;19.70;14.93;;;17.60;99.90;;;;;;5047006;28;20046;-57
2023/05/22 00:42:02;;;;;;;18.88;16.05;;;17.60;99.90;;;;;;5048341;28;20154;-57
2023/05/22 00:44:28;;;;;;;18.48;15.45;;;17.60;99.90;;;;;;5046029;28;20048;-56
2023/05/22 00:46:54;;;;;;;19.08;15.43;;;17.60;99.90;;;;;;5050635;28;20629;-57
2023/05/22 00:49:19;;;;;;;16.55;14.57;;;17.70;99.90;;;;;;5043877;28;20037;-57
2023/05/22 00:51:45;;;;;;;15.45;13.85;;;17.60;99.90;;;;;;5045838;28;20033;-57
2023/05/22 00:54:12;;;;;;;16.13;14.50;;;17.60;99.90;;;;;;5043799;28;20033;-57
2023/05/22 00:56:39;;;;;;;15.43;13.82;;;17.50;99.90;;;;;;5044652;28;20516;-57
2023/05/22 00:59:04;;;;;;;16.23;14.55;;;17.50;99.90;;;;;;5043085;28;20033;-57
2023/05/22 01:01:32;;;;;;;17.27;14.25;;;17.40;99.90;;;;;;5050713;28;20480;-56
2023/05/22 01:04:00;;;;;;;17.60;13.68;;;17.60;99.90;;;;;;5044182;28;20530;-57
2023/05/22 01:06:26;;;;;;;16.55;14.80;;;17.50;99.90;;;;;;5045099;28;20555;-57
2023/05/22 01:08:52;;;;;;;15.20;13.68;;;17.40;99.90;;;;;;5046023;28;20040;-56
2023/05/22 01:11:44;;;;;;;16.20;13.85;;;17.50;99.90;;;;;;5046893;28;20060;-57
2023/05/22 01:14:32;;;;;;;15.88;14.23;;;17.60;99.90;;;;;;5030902;28;20225;-58
2023/05/22 01:17:27;;;;;;;15.45;13.77;;;17.60;99.90;;;;;;5045401;28;20101;-57
2023/05/22 01:20:13;;;;;;;15.35;13.70;;;17.50;99.90;;;;;;5041625;28;20068;-57
2023/05/22 01:23:15;;;;;;;16.23;14.30;;;17.50;99.90;;;;;;5043790;28;20572;-57
2023/05/22 01:26:02;;;;;;;16.13;13.85;;;17.50;99.90;;;;;;5047078;28;20044;-57
2023/05/22 01:29:04;;;;;;;16.38;14.68;;;17.50;99.90;;;;;;5045070;28;20784;-57
2023/05/22 01:31:35;;;;;;;17.88;14.80;;;17.40;99.90;;;;;;5046783;28;20083;-60
2023/05/22 01:34:02;;;;;;;17.08;15.27;;;17.40;99.90;;;;;;5045134;28;20036;-60
2023/05/22 01:36:33;;;;;;;17.95;14.80;;;17.40;99.90;;;;;;5043995;28;20048;-60
2023/05/22 01:39:00;;;;;;;15.77;14.10;;;17.40;99.90;;;;;;5046502;28;20028;-60
2023/05/22 01:41:30;;;;;;;16.25;14.52;;;17.40;99.90;;;;;;5045184;28;20746;-60
2023/05/22 01:43:56;;;;;;;20.77;16.48;;;17.30;99.90;;;;;;5047885;28;20033;-60
2023/05/22 01:46:25;;;;;;;18.85;15.73;;;17.40;99.90;;;;;;5049843;28;20497;-60
2023/05/22 01:48:51;;;;;;;18.92;16.92;;;17.40;99.90;;;;;;5051978;28;20065;-60
2023/05/22 01:51:56;;;;;;;20.75;18.52;;;17.40;99.90;;;;;;5048074;28;20469;-60
2023/05/22 01:54:44;;;;;;;22.15;17.52;;;17.40;99.90;;;;;;5047979;28;20481;-60
2023/05/22 01:57:20;;;;;;;21.83;18.33;;;17.50;99.90;;;;;;5047731;28;20041;-60
2023/05/22 01:59:53;;;;;;;20.88;18.67;;;17.70;99.90;;;;;;5047181;28;20040;-60
2023/05/22 02:02:20;;;;;;;21.05;17.88;;;17.70;99.90;;;;;;5050636;28;20114;-60
2023/05/22 02:04:53;;;;;;;21.13;18.13;;;17.50;99.90;;;;;;5048993;28;20078;-60
2023/05/22 02:07:23;;;;;;;22.30;19.50;;;17.30;99.90;;;;;;5050326;28;20032;-60
2023/05/22 02:09:50;;;;;;;23.80;19.48;;;17.20;99.90;;;;;;5050456;28;20519;-60
2023/05/22 02:12:16;;;;;;;21.80;19.00;;;17.50;99.90;;;;;;5052203;28;20048;-60
2023/05/22 02:14:42;;;;;;;22.52;19.42;;;17.30;99.90;;;;;;5048292;28;20079;-60
2023/05/22 02:17:08;;;;;;;22.77;19.10;;;17.30;99.90;;;;;;5048403;28;20043;-60
2023/05/22 02:19:37;;;;;;;23.10;20.25;;;17.20;99.90;;;;;;5048669;28;20033;-60
2023/05/22 02:22:03;;;;;;;23.75;20.13;;;17.20;99.90;;;;;;5048576;28;20029;-59
2023/05/22 02:24:32;;;;;;;21.48;19.02;;;17.10;99.90;;;;;;5050073;28;20095;-60
2023/05/22 02:26:58;;;;;;;23.60;21.10;;;17.00;99.90;;;;;;5053532;28;20028;-60
2023/05/22 02:29:23;;;;;;;24.75;20.20;;;17.00;99.90;;;;;;5048577;28;20045;-60
2023/05/22 02:31:49;;;;;;;21.13;18.60;;;17.10;99.90;;;;;;5051896;28;20055;-60
2023/05/22 02:34:14;;;;;;;28.55;22.17;;;17.00;99.90;;;;;;5048138;28;20499;-60
2023/05/22 02:36:40;;;;;;;23.75;20.85;;;17.20;99.90;;;;;;5057903;28;20125;-61
2023/05/22 02:39:05;;;;;;;25.92;21.98;;;17.10;99.90;;;;;;5049904;28;20083;-60
2023/05/22 02:41:31;;;;;;;27.35;21.67;;;17.10;99.90;;;;;;5051736;28;20458;-60
2023/05/22 02:43:56;;;;;;;26.73;21.00;;;17.10;99.90;;;;;;5054973;28;20170;-60
2023/05/22 02:46:22;;;;;;;24.35;21.45;;;17.20;99.90;;;;;;5050878;28;20045;-60
2023/05/22 02:48:48;;;;;;;23.27;20.77;;;17.00;99.90;;;;;;5050352;28;20048;-60
2023/05/22 02:51:13;;;;;;;25.05;20.58;;;16.90;99.90;;;;;;5048584;28;20122;-60
2023/05/22 02:53:40;;;;;;;25.95;21.92;;;17.00;99.90;;;;;;5047733;28;20392;-60
2023/05/22 02:56:12;;;;;;;24.88;22.17;;;16.90;99.90;;;;;;5048564;28;20044;-60
2023/05/22 02:58:38;;;;;;;25.17;21.30;;;16.70;99.90;;;;;;5054498;28;20372;-60
2023/05/22 03:01:07;;;;;;;24.50;21.05;;;16.60;99.90;;;;;;5049992;28;20044;-59
2023/05/22 03:03:33;;;;;;;23.25;20.60;;;16.60;99.90;;;;;;5051844;28;20116;-60
2023/05/22 03:06:00;;;;;;;22.77;19.45;;;16.70;99.90;;;;;;5052646;28;20217;-60
2023/05/22 03:08:27;;;;;;;24.90;21.02;;;16.70;99.90;;;;;;5050921;28;20505;-60
2023/05/22 03:10:54;;;;;;;23.38;20.85;;;16.80;99.90;;;;;;5050962;28;20484;-60
2023/05/22 03:13:19;;;;;;;25.63;20.85;;;16.70;99.90;;;;;;5048210;28;20526;-60
2023/05/22 03:15:45;;;;;;;26.05;20.27;;;16.60;99.90;;;;;;5048438;28;20047;-60
2023/05/22 03:18:11;;;;;;;22.85;19.55;;;16.60;99.90;;;;;;5046608;28;20075;-60
2023/05/22 03:20:37;;;;;;;21.35;19.10;;;16.40;99.90;;;;;;5046681;28;20040;-60
2023/05/22 03:23:04;;;;;;;24.63;20.52;;;16.40;99.90;;;;;;5043212;28;20519;-59
2023/05/22 03:25:29;;;;;;;24.60;20.50;;;16.40;99.90;;;;;;5042891;28;20098;-60
2023/05/22 03:27:55;;;;;;;21.05;18.88;;;16.60;99.90;;;;;;5049708;28;20044;-60
2023/05/22 03:30:21;;;;;;;26.60;22.20;;;16.40;99.90;;;;;;5044611;28;20075;-60
2023/05/22 03:32:46;;;;;;;26.52;21.83;;;16.40;99.90;;;;;;5046431;28;20037;-60
2023/05/22 03:35:15;;;;;;;26.23;20.70;;;16.50;99.90;;;;;;5047831;28;20036;-60
2023/05/22 03:37:40;;;;;;;24.80;20.48;;;16.50;99.90;;;;;;5046233;28;20037;-60
2023/05/22 03:40:07;;;;;;;23.27;20.45;;;16.40;99.90;;;;;;5045258;28;20384;-60
2023/05/22 03:42:32;;;;;;;25.23;20.20;;;16.30;99.90;;;;;;5054823;28;20446;-60
2023/05/22 03:44:58;;;;;;;22.52;19.17;;;16.20;99.90;;;;;;5044403;28;20511;-60
2023/05/22 03:47:24;;;;;;;21.60;19.30;;;16.20;99.90;;;;;;5045889;28;20044;-60
2023/05/22 03:49:49;;;;;;;22.00;18.52;;;16.20;99.90;;;;;;5045697;28;20112;-60
2023/05/22 03:52:15;;;;;;;21.92;18.52;;;16.10;99.90;;;;;;5044767;28;20036;-60
2023/05/22 03:54:40;;;;;;;21.63;19.13;;;16.10;99.90;;;;;;5045812;28;20032;-60
2023/05/22 03:57:06;;;;;;;20.80;18.55;;;16.10;99.90;;;;;;5045509;28;20334;-60
2023/05/22 03:59:31;;;;;;;22.25;18.02;;;16.10;99.90;;;;;;5045661;28;20041;-60
2023/05/22 04:01:59;;;;;;;22.77;17.98;;;16.10;99.90;;;;;;5046466;28;20439;-60
2023/05/22 04:04:26;;;;;;;21.38;18.50;;;16.10;99.90;;;;;;5044290;28;20051;-60
2023/05/22 04:06:52;;;;;;;21.15;18.70;;;16.10;99.90;;;;;;5046080;28;20250;-61
2023/05/22 04:09:18;;;;;;;24.13;19.55;;;16.10;99.90;;;;;;5047952;28;20614;-61
2023/05/22 04:11:45;;;;;;;21.75;18.98;;;16.00;99.90;;;;;;5047114;28;20041;-60
2023/05/22 04:14:11;;;;;;;24.80;19.35;;;16.00;99.90;;;;;;5047270;28;20111;-60
2023/05/22 04:16:36;;;;;;;21.27;18.48;;;16.00;99.90;;;;;;5046893;28;20132;-60
2023/05/22 04:19:02;;;;;;;23.98;19.75;;;16.10;99.90;;;;;;5048246;28;20119;-59
2023/05/22 04:21:34;;;;;;;20.85;18.65;;;16.00;99.90;;;;;;5046404;28;20132;-60
2023/05/22 04:24:00;;;;;;;21.77;18.10;;;16.00;99.90;;;;;;5045024;28;20045;-60
2023/05/22 04:26:30;;;;;;;21.83;17.70;;;16.00;99.90;;;;;;5044066;28;20041;-60
2023/05/22 04:28:56;;;;;;;22.80;19.73;;;16.00;99.90;;;;;;5044425;28;20536;-60
2023/05/22 04:31:21;;;;;;;22.92;20.30;;;16.00;99.90;;;;;;5046878;28;20037;-60
2023/05/22 04:33:48;;;;;;;24.30;20.38;;;16.10;99.90;;;;;;5043167;28;20298;-61
2023/05/22 04:36:14;;;;;;;29.48;24.70;;;16.30;99.90;;;;;;5042766;28;20056;-60
2023/05/22 04:38:43;;;;;;;28.17;24.67;;;16.30;99.90;;;;;;5049222;28;20272;-60
2023/05/22 04:41:10;;;;;;;30.08;24.88;;;16.30;99.90;;;;;;5043922;28;20634;-60
2023/05/22 04:43:37;;;;;;;27.95;23.60;;;16.40;99.90;;;;;;5048739;28;20040;-61
2023/05/22 04:46:03;;;;;;;32.83;27.30;;;16.30;99.90;;;;;;5045057;28;20063;-61
2023/05/22 04:48:29;;;;;;;28.35;25.25;;;16.40;99.90;;;;;;5049383;28;20041;-62
2023/05/22 04:50:56;;;;;;;33.40;26.52;;;16.40;99.90;;;;;;5044621;28;20047;-62
2023/05/22 04:53:21;;;;;;;30.83;25.27;;;16.40;99.90;;;;;;5045159;28;20045;-62
2023/05/22 04:55:48;;;;;;;29.35;24.52;;;16.40;99.90;;;;;;5046919;28;20045;-62
2023/05/22 04:58:13;;;;;;;29.25;25.02;;;16.30;99.90;;;;;;5046502;28;20032;-61
2023/05/22 05:00:39;;;;;;;36.08;28.83;;;16.40;99.90;;;;;;5049631;28;20048;-62
2023/05/22 05:03:06;;;;;;;40.65;32.53;;;16.50;99.90;;;;;;5046109;28;20060;-62
2023/05/22 05:05:32;;;;;;;36.47;29.67;;;16.50;99.90;;;;;;5046938;28;20622;-62
2023/05/22 05:07:58;;;;;;;37.35;30.20;;;16.60;99.90;;;;;;5052561;28;20119;-62
2023/05/22 05:10:23;;;;;;;34.38;30.10;;;16.60;99.90;;;;;;5050030;28;20048;-62
2023/05/22 05:12:49;;;;;;;42.38;31.60;;;16.60;99.90;;;;;;5050753;28;20532;-55
2023/05/22 05:15:15;;;;;;;43.83;32.88;;;16.60;99.90;;;;;;5049386;28;20641;-55
2023/05/22 05:17:41;;;;;;;45.67;34.75;;;16.60;99.90;;;;;;5050087;28;20320;-55
2023/05/22 05:20:07;;;;;;;47.15;36.20;;;16.60;99.90;;;;;;5051234;28;20037;-54
2023/05/22 05:22:32;;;;;;;49.35;39.13;;;16.60;99.90;;;;;;5053651;28;20044;-55
2023/05/22 05:24:58;;;;;;;50.80;39.17;;;16.70;99.90;;;;;;5047397;28;20378;-55
2023/05/22 05:27:23;;;;;;;47.55;38.22;;;16.70;99.90;;;;;;5039607;28;20045;-55
2023/05/22 05:29:49;;;;;;;53.03;40.33;;;16.80;99.90;;;;;;5044103;28;20048;-55
2023/05/22 05:32:15;;;;;;;59.00;43.40;;;17.00;99.90;;;;;;5051759;28;20116;-55
2023/05/22 05:34:40;;;;;;;53.70;42.67;;;17.10;99.90;;;;;;5046960;28;20029;-54
2023/05/22 05:37:06;;;;;;;55.83;42.70;;;17.30;99.90;;;;;;5052430;28;20052;-55
2023/05/22 05:39:31;;;;;;;58.53;44.80;;;17.40;99.90;;;;;;5049480;28;20064;-55
2023/05/22 05:41:57;;;;;;;61.55;46.80;;;17.40;99.90;;;;;;5051409;28;20048;-55
2023/05/22 05:44:23;;;;;;;66.82;49.88;;;17.50;99.90;;;;;;5050205;28;20500;-55
2023/05/22 05:46:48;;;;;;;59.58;46.38;;;17.60;99.90;;;;;;5046986;28;20043;-55
2023/05/22 05:49:14;;;;;;;62.42;48.80;;;17.50;99.90;;;;;;5050923;28;20024;-55
2023/05/22 05:51:39;;;;;;;64.38;48.55;;;17.50;99.90;;;;;;5050390;28;20047;-55
2023/05/22 05:54:05;;;;;;;68.85;51.13;;;17.50;99.90;;;;;;5048464;28;20025;-55
2023/05/22 05:56:31;;;;;;;69.68;52.28;;;17.50;99.90;;;;;;5051191;28;20033;-55
2023/05/22 05:58:56;;;;;;;67.80;50.83;;;17.50;99.90;;;;;;5045286;28;20062;-55
2023/05/22 06:01:23;;;;;;;78.95;56.60;;;17.70;99.90;;;;;;5049503;28;20072;-55
2023/05/22 06:03:49;;;;;;;77.22;57.05;;;17.80;99.90;;;;;;5044014;28;20686;-55
2023/05/22 06:06:16;;;;;;;77.60;56.38;;;17.90;99.90;;;;;;5040432;28;20551;-55
2023/05/22 06:08:42;;;;;;;83.85;59.20;;;17.90;99.90;;;;;;5051212;28;20107;-55
2023/05/22 06:11:08;;;;;;;82.03;58.45;;;19.00;99.90;;;;;;5044492;28;20035;-55
2023/05/22 06:13:34;;;;;;;83.22;58.97;;;18.00;99.90;;;;;;5056991;28;20828;-55
2023/05/22 06:15:59;;;;;;;82.15;60.00;;;18.10;99.90;;;;;;5044323;28;20136;-55
2023/05/22 06:18:25;;;;;;;84.60;61.17;;;19.50;99.90;;;;;;5049788;28;20032;-55
2023/05/22 06:20:52;;;;;;;77.88;58.20;;;17.90;99.90;;;;;;5044576;28;20041;-55
2023/05/22 06:23:18;;;;;;;83.53;60.05;;;18.10;99.90;;;;;;5044455;28;20041;-55
2023/05/22 06:25:43;;;;;;;86.15;62.08;;;18.20;99.90;;;;;;5054343;28;20039;-55
2023/05/22 06:28:09;;;;;;;92.15;64.47;;;18.40;99.90;;;;;;5052211;28;20441;-55
2023/05/22 06:30:35;;;;;;;88.95;64.32;;;18.30;99.90;;;;;;5055170;28;20439;-55
2023/05/22 06:33:02;;;;;;;90.75;64.78;;;18.40;99.90;;;;;;5058501;28;20037;-54
2023/05/22 06:35:28;;;;;;;98.25;66.32;;;18.50;99.90;;;;;;5058751;28;20082;-55
2023/05/22 06:37:54;;;;;;;95.30;68.15;;;18.40;99.90;;;;;;5056017;28;20481;-55
2023/05/22 06:40:20;;;;;;;93.90;69.05;;;18.60;99.90;;;;;;5050691;28;20236;-55
2023/05/22 06:42:45;;;;;;;92.15;66.60;;;18.40;99.90;;;;;;5060286;28;20024;-55
2023/05/22 06:45:11;;;;;;;96.20;68.38;;;18.40;99.90;;;;;;5057007;28;20641;-55
2023/05/22 06:47:37;;;;;;;88.10;66.85;;;18.30;99.90;;;;;;5059771;28;20031;-55
2023/05/22 06:50:03;;;;;;;87.15;63.75;;;18.30;99.90;;;;;;5050111;28;20052;-55
2023/05/22 06:52:28;;;;;;;90.28;66.28;;;18.20;99.90;;;;;;5061983;28;20037;-55
2023/05/22 06:54:54;;;;;;;85.68;65.07;;;18.30;99.90;;;;;;5055729;28;20040;-55
2023/05/22 06:57:20;;;;;;;90.47;66.03;;;18.30;99.90;;;;;;5056074;28;20041;-55
2023/05/22 06:59:45;;;;;;;93.38;67.25;;;18.50;99.90;;;;;;5052958;28;20802;-55
2023/05/22 07:02:11;;;;;;;96.70;67.88;;;18.40;99.90;;;;;;5047899;28;20061;-55
2023/05/22 07:04:36;;;;;;;88.95;66.35;;;18.40;99.90;;;;;;5056585;28;20044;-55
2023/05/22 07:07:02;;;;;;;93.00;69.35;;;18.30;99.90;;;;;;5055145;28;21124;-56
2023/05/22 07:09:28;;;;;;;88.78;65.75;;;18.40;99.90;;;;;;5051439;28;20063;-55
2023/05/22 07:11:53;;;;;;;82.25;63.03;;;18.20;99.90;;;;;;5049063;28;20074;-55
2023/05/22 07:14:19;;;;;;;81.35;61.38;;;18.00;99.90;;;;;;5051523;28;20873;-55
2023/05/22 07:16:45;;;;;;;77.57;59.90;;;17.80;99.90;;;;;;5054829;28;20301;-55
2023/05/22 07:19:11;;;;;;;78.40;61.08;;;17.80;99.90;;;;;;5047916;28;20124;-55
2023/05/22 07:21:37;;;;;;;80.53;60.42;;;18.00;99.90;;;;;;5055323;28;20104;-55
2023/05/22 07:24:07;;;;;;;87.97;64.95;;;18.10;99.90;;;;;;5053372;28;20072;-55
2023/05/22 07:26:34;;;;;;;96.13;66.25;;;18.10;99.90;;;;;;5052638;28;20041;-55
2023/05/22 07:28:59;;;;;;;91.07;64.60;;;18.30;99.90;;;;;;5047058;28;20032;-55
2023/05/22 07:31:25;;;;;;;87.53;64.65;;;18.30;99.90;;;;;;5037931;28;20656;-56
2023/05/22 07:33:51;;;;;;;88.78;63.13;;;18.30;99.90;;;;;;5053440;28;20086;-55
2023/05/22 07:36:17;;;;;;;85.53;63.78;;;18.30;99.90;;;;;;5054131;28;20059;-55
2023/05/22 07:38:44;;;;;;;86.72;63.42;;;18.50;99.90;;;;;;5052484;28;20077;-55
2023/05/22 07:41:09;;;;;;;81.60;62.80;;;18.30;99.90;;;;;;5055372;28;20090;-55
2023/05/22 07:43:35;;;;;;;78.78;59.17;;;18.30;99.90;;;;;;5060679;28;20077;-55
2023/05/22 07:46:00;;;;;;;78.28;59.17;;;18.40;99.90;;;;;;5051699;28;20032;-55
2023/05/22 07:48:26;;;;;;;76.40;57.72;;;18.40;99.90;;;;;;5054867;28;20185;-56
2023/05/22 07:50:52;;;;;;;78.95;57.33;;;18.20;99.90;;;;;;5047892;28;20029;-56
2023/05/22 07:53:17;;;;;;;77.35;58.25;;;18.30;99.90;;;;;;5057510;28;20028;-56
2023/05/22 07:55:43;;;;;;;76.75;58.25;;;18.40;99.90;;;;;;5053891;28;20976;-55
2023/05/22 07:58:09;;;;;;;72.97;54.67;;;18.50;99.90;;;;;;5053479;28;20094;-55
2023/05/22 08:00:35;;;;;;;73.53;55.72;;;18.40;99.90;;;;;;5054469;28;20033;-55
2023/05/22 08:03:01;;;;;;;72.28;54.85;;;18.20;99.90;;;;;;5056585;28;20032;-55
2023/05/22 08:05:26;;;;;;;72.70;56.70;;;18.40;99.90;;;;;;5047190;28;20392;-56
2023/05/22 08:07:52;;;;;;;74.32;57.25;;;18.40;99.90;;;;;;5049821;28;20102;-55
2023/05/22 08:10:18;;;;;;;73.68;56.40;;;18.40;99.90;;;;;;5050822;28;20032;-56
2023/05/22 08:12:43;;;;;;;79.15;56.72;;;18.30;99.90;;;;;;5056329;28;20097;-56
2023/05/22 08:15:09;;;;;;;75.07;56.10;;;18.30;99.90;;;;;;5049209;28;20619;-56
2023/05/22 08:17:35;;;;;;;74.18;56.85;;;18.50;99.90;;;;;;5052014;28;20095;-55
2023/05/22 08:20:01;;;;;;;74.22;55.25;;;18.50;99.90;;;;;;5055126;28;20064;-56
2023/05/22 08:22:28;;;;;;;69.28;52.72;;;18.50;99.90;;;;;;5050944;28;20067;-56
2023/05/22 08:24:54;;;;;;;68.75;53.00;;;18.50;99.90;;;;;;5048471;28;20724;-56
2023/05/22 08:27:20;;;;;;;67.65;51.47;;;18.40;99.90;;;;;;5054608;28;20021;-55
2023/05/22 08:29:45;;;;;;;64.88;47.97;;;18.20;99.90;;;;;;5049388;28;20075;-56
2023/05/22 08:32:11;;;;;;;67.35;49.10;;;18.10;99.90;;;;;;5047236;28;20037;-56
2023/05/22 08:34:38;;;;;;;71.15;51.92;;;18.00;99.90;;;;;;5056995;28;20035;-55
2023/05/22 08:37:04;;;;;;;67.57;49.67;;;18.00;99.90;;;;;;5054890;28;20044;-55
2023/05/22 08:39:31;;;;;;;62.30;48.03;;;18.10;99.90;;;;;;5052839;28;20041;-56
2023/05/22 08:41:58;;;;;;;62.17;47.80;;;17.70;99.90;;;;;;5055905;28;20415;-56
2023/05/22 08:44:24;;;;;;;60.63;47.05;;;17.40;99.90;;;;;;5051635;28;21038;-55
2023/05/22 08:46:51;;;;;;;64.00;47.83;;;17.30;99.90;;;;;;5048539;28;20166;-55
2023/05/22 08:49:18;;;;;;;62.45;46.42;;;17.30;99.90;;;;;;5050835;28;20437;-55
2023/05/22 08:51:47;;;;;;;63.80;47.38;;;17.30;99.90;;;;;;5059303;28;20435;-55
2023/05/22 08:54:17;;;;;;;63.30;46.75;;;17.20;99.90;;;;;;5058635;28;20028;-55
2023/05/22 08:56:43;;;;;;;61.78;47.35;;;17.00;99.90;;;;;;5050774;28;20036;-55
2023/05/22 08:59:10;;;;;;;63.85;48.20;;;17.20;99.90;;;;;;5057764;28;20121;-55
2023/05/22 09:01:36;;;;;;;70.03;48.33;;;17.10;99.90;;;;;;5058188;28;20043;-55
2023/05/22 09:04:02;;;;;;;62.88;47.60;;;16.90;99.90;;;;;;5053212;28;20448;-57
2023/05/22 09:06:28;;;;;;;66.78;48.60;;;17.50;99.90;;;;;;5058387;28;20423;-55
2023/05/22 09:08:56;;;;;;;63.95;47.63;;;17.70;99.90;;;;;;5049833;28;20639;-56
2023/05/22 09:11:22;;;;;;;58.55;45.45;;;17.60;99.90;;;;;;5059902;28;20108;-65
2023/05/22 09:13:50;;;;;;;62.88;48.28;;;17.70;99.90;;;;;;5059491;28;20048;-65
2023/05/22 09:16:15;;;;;;;59.40;46.95;;;18.00;99.90;;;;;;5055852;28;20040;-64
2023/05/22 09:18:41;;;;;;;60.92;46.85;;;17.80;99.90;;;;;;5058487;28;20028;-64
2023/05/22 09:21:08;;;;;;;68.65;51.75;;;17.90;99.90;;;;;;5053522;28;20063;-64
2023/05/22 09:23:34;;;;;;;65.55;50.28;;;18.00;99.90;;;;;;5053806;28;20091;-64
2023/05/22 09:26:01;;;;;;;64.40;49.40;;;17.90;99.90;;;;;;5056135;28;20044;-65
2023/05/22 09:28:32;;;;;;;70.30;51.33;;;18.00;99.90;;;;;;5056405;28;20801;-64
2023/05/22 09:30:58;;;;;;;67.03;50.25;;;18.10;99.90;;;;;;5060768;28;20439;-65
2023/05/22 09:33:23;;;;;;;67.45;51.15;;;17.90;99.90;;;;;;5053842;28;20029;-64
2023/05/22 09:35:52;;;;;;;67.82;49.78;;;17.90;99.90;;;;;;5054450;28;20033;-65
2023/05/22 09:38:20;;;;;;;62.90;49.90;;;18.20;99.90;;;;;;5049059;28;20514;-64
2023/05/22 09:40:46;;;;;;;65.57;50.00;;;18.30;99.90;;;;;;5052762;28;20056;-64
2023/05/22 09:43:16;;;;;;;69.43;52.45;;;18.50;99.90;;;;;;5056420;28;20102;-64
2023/05/22 09:45:41;;;;;;;66.88;50.67;;;18.60;99.90;;;;;;5053133;28;20058;-64
2023/05/22 09:48:08;;;;;;;61.60;50.10;;;18.70;99.90;;;;;;5056431;28;20036;-63
2023/05/22 09:50:35;;;;;;;59.08;45.78;;;18.70;99.90;;;;;;5055860;28;20033;-64
2023/05/22 09:53:02;;;;;;;66.22;49.03;;;18.50;99.90;;;;;;5049433;28;20280;-64
2023/05/22 09:55:28;;;;;;;65.07;46.90;;;18.40;99.90;;;;;;5060913;28;20411;-64
2023/05/22 09:57:55;;;;;;;62.60;45.72;;;18.50;99.90;;;;;;5055399;28;20154;-64
2023/05/22 10:00:22;;;;;;;58.80;46.83;;;18.40;99.90;;;;;;5049917;28;20472;-64
2023/05/22 10:02:57;;;;;;;60.65;46.90;;;18.60;99.90;;;;;;5054618;28;20024;-64
2023/05/22 10:05:28;;;;;;;62.38;48.60;;;18.80;99.90;;;;;;5056882;28;20036;-64
2023/05/22 10:07:56;;;;;;;62.80;47.28;;;19.10;99.90;;;;;;5055861;28;20102;-64
2023/05/22 10:10:24;;;;;;;66.82;49.58;;;19.40;99.90;;;;;;5056584;28;20036;-64
2023/05/22 10:12:53;;;;;;;59.08;46.55;;;19.60;99.90;;;;;;5055267;28;20041;-64
2023/05/22 10:15:20;;;;;;;59.78;47.50;;;19.50;99.90;;;;;;5054352;28;20033;-64
2023/05/22 10:17:46;;;;;;;60.67;46.97;;;19.20;99.90;;;;;;5062867;28;20443;-65
2023/05/22 10:20:13;;;;;;;61.10;47.33;;;19.50;99.90;;;;;;5056394;28;20400;-64
2023/05/22 10:22:40;;;;;;;62.08;47.45;;;20.10;99.90;;;;;;5059313;28;20020;-65
2023/05/22 10:25:06;;;;;;;57.10;45.70;;;20.10;99.90;;;;;;5055736;28;20420;-64
2023/05/22 10:27:32;;;;;;;61.05;46.53;;;20.20;99.90;;;;;;5055323;28;20396;-64
2023/05/22 10:30:12;;;;;;;55.20;42.28;;;19.90;99.90;;;;;;5053405;28;20029;-63
2023/05/22 10:32:40;;;;;;;61.10;47.85;;;20.30;99.90;;;;;;5057123;28;20034;-63
2023/05/22 10:35:32;;;;;;;61.28;48.25;;;20.40;99.90;;;;;;5064432;28;20033;-65
2023/05/22 10:38:24;;;;;;;64.45;48.50;;;20.50;99.90;;;;;;5060930;28;20088;-66
2023/05/22 10:40:50;;;;;;;64.65;47.60;;;20.50;99.90;;;;;;5049778;28;20041;-66
2023/05/22 10:43:16;;;;;;;62.55;47.90;;;20.40;99.90;;;;;;5058267;28;20044;-65
2023/05/22 10:45:45;;;;;;;60.67;45.60;;;20.50;99.90;;;;;;5054261;28;20032;-65
2023/05/22 10:48:11;;;;;;;63.28;46.55;;;20.30;99.90;;;;;;5056630;28;20094;-64
2023/05/22 10:50:37;;;;;;;59.00;44.70;;;20.40;99.90;;;;;;5059280;28;20033;-66
2023/05/22 10:53:22;;;;;;;62.97;47.42;;;20.40;99.90;;;;;;5059795;28;20036;-66
2023/05/22 10:55:50;;;;;;;63.70;46.95;;;20.70;99.90;;;;;;5057100;28;20025;-67
2023/05/22 10:58:16;;;;;;;57.63;43.42;;;20.70;99.90;;;;;;5049428;28;20033;-67
2023/05/22 11:00:42;;;;;;;56.53;42.75;;;20.70;99.90;;;;;;5049306;28;20480;-66
2023/05/22 11:03:08;;;;;;;57.88;45.33;;;20.80;99.90;;;;;;5051232;28;20120;-66
2023/05/22 11:05:36;;;;;;;61.05;44.90;;;;;;;;;;5060120;28;20136;-66
2023/05/22 11:08:31;;;;;;;64.70;46.25;;;20.80;99.90;;;;;;5057754;28;20090;-60
2023/05/22 11:11:00;;;;;;;58.90;43.38;;;20.90;99.90;;;;;;5056541;28;20573;-66
2023/05/22 11:13:26;;;;;;;54.10;42.85;;;21.00;53.30;;;;;;5055651;28;20025;-66
2023/05/22 11:15:54;;;;;;;58.70;43.58;;;20.80;99.90;;;;;;5051523;28;20033;-66
2023/05/22 11:18:20;;;;;;;58.30;42.40;;;21.00;99.90;;;;;;5050112;28;20044;-66
2023/05/22 11:20:45;;;;;;;53.85;41.13;;;21.00;33.10;;;;;;5048601;28;20090;-66
2023/05/22 11:23:11;;;;;;;63.55;46.38;;;21.10;20.40;;;;;;5055487;28;20033;-66
2023/05/22 11:25:39;;;;;;;55.20;42.63;;;21.30;99.90;;;;;;5051851;28;20396;-67
2023/05/22 11:28:06;;;;;;;60.47;43.15;;;21.40;14.20;;;;;;5052737;28;20052;-66
2023/05/22 11:30:33;;;;;;;54.60;43.08;;;21.50;72.90;;;;;;5051267;28;20102;-57
2023/05/22 11:33:00;;;;;;;54.42;41.63;;;21.50;29.40;;;;;;5050561;28;20025;-57
2023/05/22 11:35:26;;;;;;;55.55;41.67;;;21.60;1.00;;;;;;5053827;28;20067;-57
2023/05/22 11:37:53;;;;;;;52.72;38.72;;;21.60;1.00;;;;;;5058028;28;20529;-57
2023/05/22 11:40:20;;;;;;;51.72;40.63;;;21.60;72.00;;;;;;5053790;28;20121;-57
2023/05/22 11:42:46;;;;;;;55.75;42.92;;;21.80;1.00;;;;;;5057667;28;20040;-58
2023/05/22 11:45:13;;;;;;;51.25;40.30;;;21.90;1.00;;;;;;5049764;28;20032;-57
2023/05/22 11:47:39;;;;;;;50.08;39.78;;;21.90;1.00;;;;;;5051883;28;20151;-57
2023/05/22 11:50:08;;;;;;;49.40;38.63;;;22.00;1.00;;;;;;5053723;28;20808;-57
2023/05/22 11:52:35;;;;;;;49.63;37.85;;;21.60;1.00;;;;;;5049962;28;20499;-57
2023/05/22 11:55:04;;;;;;;55.85;42.35;;;21.70;1.00;;;;;;5050428;28;20428;-58
2023/05/22 11:57:30;;;;;;;52.70;40.13;;;21.90;77.40;;;;;;5054813;28;20041;-58
2023/05/22 11:59:57;;;;;;;51.22;40.08;;;21.90;1.00;;;;;;5057009;28;20041;-57
2023/05/22 12:02:22;;;;;;;49.53;38.95;;;22.00;1.00;;;;;;5049228;28;20041;-57
2023/05/22 12:04:53;;;;;;;46.95;38.33;;;21.90;1.00;;;;;;5051980;28;20043;-57
2023/05/22 12:07:19;;;;;;;50.30;39.80;;;21.90;1.00;;;;;;5050294;28;20124;-58
2023/05/22 12:09:44;;;;;;;45.75;37.25;;;22.10;1.00;;;;;;5055878;28;20131;-58
2023/05/22 12:12:10;;;;;;;51.85;37.40;;;22.10;1.00;;;;;;5045496;28;20036;-58
2023/05/22 12:14:36;;;;;;;45.28;37.70;;;22.00;1.00;;;;;;5047641;28;20145;-58
2023/05/22 12:17:05;;;;;;;47.25;37.25;;;22.10;1.00;;;;;;5049018;28;21518;-58
2023/05/22 12:19:33;;;;;;;40.58;33.05;;;21.90;1.00;;;;;;5045559;28;20049;-58
2023/05/22 12:21:59;;;;;;;46.92;38.13;;;22.10;1.00;;;;;;5050150;28;20033;-57
2023/05/22 12:24:25;;;;;;;46.78;36.28;;;22.30;1.00;;;;;;5057147;28;20052;-58
2023/05/22 12:26:55;;;;;;;46.58;37.40;;;22.50;1.00;;;;;;5044429;28;20644;-57
2023/05/22 12:29:24;;;;;;;44.45;35.17;;;22.40;1.00;;;;;;5047649;28;20517;-58